sensor_id;sensor_type;location;lat;lon;timestamp;temperature;humidity
61351;DHT22;47119;49.130;9.218;2022-08-14T00:01:26;22.01;51.57
61351;DHT22;47119;49.130;9.218;2022-08-14T00:04:01;22.00;51.77
61351;DHT22;47119;49.130;9.218;2022-08-14T00:06:48;21.98;51.77
61351;DHT22;47119;49.130;9.218;2022-08-14T00:09:15;21.97;52.07
61351;DHT22;47119;49.130;9.218;2022-08-14T00:11:48;21.97;52.11
61351;DHT22;47119;49.130;9.218;2022-08-14T00:14:24;21.96;52.19
61351;DHT22;47119;49.130;9.218;2022-08-14T00:16:56;21.97;52.32
61351;DHT22;47119;49.130;9.218;2022-08-14T00:19:29;21.93;52.51
61351;DHT22;47119;49.130;9.218;2022-08-14T00:21:59;21.94;52.47
61351;DHT22;47119;49.130;9.218;2022-08-14T00:24:29;21.94;52.66
61351;DHT22;47119;49.130;9.218;2022-08-14T00:27:01;21.93;52.53
61351;DHT22;47119;49.130;9.218;2022-08-14T00:29:30;21.92;52.83
61351;DHT22;47119;49.130;9.218;2022-08-14T00:31:57;21.92;52.82
61351;DHT22;47119;49.130;9.218;2022-08-14T00:34:24;21.93;52.83
61351;DHT22;47119;49.130;9.218;2022-08-14T00:36:54;21.87;52.91
61351;DHT22;47119;49.130;9.218;2022-08-14T00:39:21;21.87;52.86
61351;DHT22;47119;49.130;9.218;2022-08-14T00:41:49;21.89;52.78
61351;DHT22;47119;49.130;9.218;2022-08-14T00:44:18;21.89;52.92
61351;DHT22;47119;49.130;9.218;2022-08-14T00:46:50;21.87;52.98
61351;DHT22;47119;49.130;9.218;2022-08-14T00:49:17;21.89;53.01
61351;DHT22;47119;49.130;9.218;2022-08-14T00:51:44;21.89;53.04
61351;DHT22;47119;49.130;9.218;2022-08-14T00:54:11;21.90;53.16
61351;DHT22;47119;49.130;9.218;2022-08-14T00:56:41;21.92;53.29
61351;DHT22;47119;49.130;9.218;2022-08-14T00:59:11;21.90;53.36
61351;DHT22;47119;49.130;9.218;2022-08-14T01:01:43;21.92;53.45
61351;DHT22;47119;49.130;9.218;2022-08-14T01:04:15;21.92;53.55
61351;DHT22;47119;49.130;9.218;2022-08-14T01:06:45;21.94;53.57
61351;DHT22;47119;49.130;9.218;2022-08-14T01:09:17;21.96;53.68
61351;DHT22;47119;49.130;9.218;2022-08-14T01:11:49;21.94;53.77
61351;DHT22;47119;49.130;9.218;2022-08-14T01:14:19;21.96;53.98
61351;DHT22;47119;49.130;9.218;2022-08-14T01:16:49;21.92;54.27
61351;DHT22;47119;49.130;9.218;2022-08-14T01:19:18;21.96;54.48
61351;DHT22;47119;49.130;9.218;2022-08-14T01:22:04;21.94;54.61
61351;DHT22;47119;49.130;9.218;2022-08-14T01:24:36;21.94;54.74
61351;DHT22;47119;49.130;9.218;2022-08-14T01:27:05;21.93;54.70
61351;DHT22;47119;49.130;9.218;2022-08-14T01:29:34;21.96;54.66
61351;DHT22;47119;49.130;9.218;2022-08-14T01:32:03;21.94;54.15
61351;DHT22;47119;49.130;9.218;2022-08-14T01:34:31;21.93;54.21
61351;DHT22;47119;49.130;9.218;2022-08-14T01:36:58;21.90;53.45
61351;DHT22;47119;49.130;9.218;2022-08-14T01:39:32;21.84;53.38
61351;DHT22;47119;49.130;9.218;2022-08-14T01:42:01;21.72;53.08
61351;DHT22;47119;49.130;9.218;2022-08-14T01:44:32;21.67;53.03
61351;DHT22;47119;49.130;9.218;2022-08-14T01:47:04;21.65;52.90
61351;DHT22;47119;49.130;9.218;2022-08-14T01:49:36;21.62;52.93
61351;DHT22;47119;49.130;9.218;2022-08-14T01:52:03;21.56;52.67
61351;DHT22;47119;49.130;9.218;2022-08-14T01:54:32;21.55;52.58
61351;DHT22;47119;49.130;9.218;2022-08-14T01:56:59;21.53;52.61
61351;DHT22;47119;49.130;9.218;2022-08-14T01:59:29;21.47;52.43
61351;DHT22;47119;49.130;9.218;2022-08-14T02:02:02;21.42;52.40
61351;DHT22;47119;49.130;9.218;2022-08-14T02:04:37;21.43;52.22
61351;DHT22;47119;49.130;9.218;2022-08-14T02:07:05;21.38;52.20
61351;DHT22;47119;49.130;9.218;2022-08-14T02:09:35;21.38;52.11
61351;DHT22;47119;49.130;9.218;2022-08-14T02:12:07;21.35;52.27
61351;DHT22;47119;49.130;9.218;2022-08-14T02:14:35;21.32;52.20
61351;DHT22;47119;49.130;9.218;2022-08-14T02:17:02;21.25;52.42
61351;DHT22;47119;49.130;9.218;2022-08-14T02:19:36;21.21;52.37
61351;DHT22;47119;49.130;9.218;2022-08-14T02:22:03;21.24;52.38
61351;DHT22;47119;49.130;9.218;2022-08-14T02:24:34;21.19;52.36
61351;DHT22;47119;49.130;9.218;2022-08-14T02:27:03;21.18;52.47
61351;DHT22;47119;49.130;9.218;2022-08-14T02:29:30;21.16;52.52
61351;DHT22;47119;49.130;9.218;2022-08-14T02:32:00;21.15;52.48
61351;DHT22;47119;49.130;9.218;2022-08-14T02:34:35;21.14;52.65
61351;DHT22;47119;49.130;9.218;2022-08-14T02:37:08;21.09;52.67
61351;DHT22;47119;49.130;9.218;2022-08-14T02:39:40;21.08;52.74
61351;DHT22;47119;49.130;9.218;2022-08-14T02:42:10;21.06;52.80
61351;DHT22;47119;49.130;9.218;2022-08-14T02:44:40;21.04;52.87
61351;DHT22;47119;49.130;9.218;2022-08-14T02:47:10;21.05;52.71
61351;DHT22;47119;49.130;9.218;2022-08-14T02:49:38;21.04;52.92
61351;DHT22;47119;49.130;9.218;2022-08-14T02:52:05;20.97;52.94
61351;DHT22;47119;49.130;9.218;2022-08-14T02:54:35;20.97;52.98
61351;DHT22;47119;49.130;9.218;2022-08-14T02:57:06;20.95;53.16
61351;DHT22;47119;49.130;9.218;2022-08-14T02:59:35;20.95;53.06
61351;DHT22;47119;49.130;9.218;2022-08-14T03:02:04;20.95;53.18
61351;DHT22;47119;49.130;9.218;2022-08-14T03:04:32;20.95;53.20
61351;DHT22;47119;49.130;9.218;2022-08-14T03:07:01;20.97;53.14
61351;DHT22;47119;49.130;9.218;2022-08-14T03:09:29;20.94;53.13
61351;DHT22;47119;49.130;9.218;2022-08-14T03:11:57;20.88;53.23
61351;DHT22;47119;49.130;9.218;2022-08-14T03:14:28;20.85;53.33
61351;DHT22;47119;49.130;9.218;2022-08-14T03:16:55;20.87;53.26
61351;DHT22;47119;49.130;9.218;2022-08-14T03:19:22;20.83;53.32
61351;DHT22;47119;49.130;9.218;2022-08-14T03:21:49;20.80;53.21
61351;DHT22;47119;49.130;9.218;2022-08-14T03:24:16;20.87;53.12
61351;DHT22;47119;49.130;9.218;2022-08-14T03:26:45;20.88;53.06
61351;DHT22;47119;49.130;9.218;2022-08-14T03:29:16;20.81;53.30
61351;DHT22;47119;49.130;9.218;2022-08-14T03:31:48;20.80;53.30
61351;DHT22;47119;49.130;9.218;2022-08-14T03:34:16;20.75;53.45
61351;DHT22;47119;49.130;9.218;2022-08-14T03:36:46;20.71;53.72
61351;DHT22;47119;49.130;9.218;2022-08-14T03:39:19;20.66;53.78
61351;DHT22;47119;49.130;9.218;2022-08-14T03:41:52;20.60;54.09
61351;DHT22;47119;49.130;9.218;2022-08-14T03:44:21;20.61;53.97
61351;DHT22;47119;49.130;9.218;2022-08-14T03:46:51;20.56;54.09
61351;DHT22;47119;49.130;9.218;2022-08-14T03:49:23;20.60;54.07
61351;DHT22;47119;49.130;9.218;2022-08-14T03:51:52;20.57;54.23
61351;DHT22;47119;49.130;9.218;2022-08-14T03:54:19;20.73;53.99
61351;DHT22;47119;49.130;9.218;2022-08-14T03:56:49;20.75;53.90
61351;DHT22;47119;49.130;9.218;2022-08-14T03:59:16;20.78;54.09
61351;DHT22;47119;49.130;9.218;2022-08-14T04:01:43;20.77;54.19
61351;DHT22;47119;49.130;9.218;2022-08-14T04:04:15;20.77;54.33
61351;DHT22;47119;49.130;9.218;2022-08-14T04:06:42;20.80;54.56
61351;DHT22;47119;49.130;9.218;2022-08-14T04:09:09;20.83;54.79
61351;DHT22;47119;49.130;9.218;2022-08-14T04:11:37;20.84;54.91
61351;DHT22;47119;49.130;9.218;2022-08-14T04:14:06;20.81;55.21
61351;DHT22;47119;49.130;9.218;2022-08-14T04:16:34;20.84;55.29
61351;DHT22;47119;49.130;9.218;2022-08-14T04:19:03;20.81;55.32
61351;DHT22;47119;49.130;9.218;2022-08-14T04:21:36;20.81;55.59
61351;DHT22;47119;49.130;9.218;2022-08-14T04:24:04;20.83;55.61
61351;DHT22;47119;49.130;9.218;2022-08-14T04:26:31;20.75;55.79
61351;DHT22;47119;49.130;9.218;2022-08-14T04:28:59;20.81;55.84
61351;DHT22;47119;49.130;9.218;2022-08-14T04:31:31;20.84;55.87
61351;DHT22;47119;49.130;9.218;2022-08-14T04:33:58;20.80;56.26
61351;DHT22;47119;49.130;9.218;2022-08-14T04:36:26;20.83;56.26
61351;DHT22;47119;49.130;9.218;2022-08-14T04:38:57;20.87;56.33
61351;DHT22;47119;49.130;9.218;2022-08-14T04:41:46;20.80;56.92
61351;DHT22;47119;49.130;9.218;2022-08-14T04:44:33;20.81;57.06
61351;DHT22;47119;49.130;9.218;2022-08-14T04:47:01;20.80;57.26
61351;DHT22;47119;49.130;9.218;2022-08-14T04:49:46;20.81;57.21
61351;DHT22;47119;49.130;9.218;2022-08-14T04:52:13;20.81;57.32
61351;DHT22;47119;49.130;9.218;2022-08-14T04:54:46;20.81;57.17
61351;DHT22;47119;49.130;9.218;2022-08-14T04:57:19;20.78;57.44
61351;DHT22;47119;49.130;9.218;2022-08-14T04:59:48;20.78;57.70
61351;DHT22;47119;49.130;9.218;2022-08-14T05:02:17;20.83;57.39
61351;DHT22;47119;49.130;9.218;2022-08-14T05:04:48;20.83;57.46
61351;DHT22;47119;49.130;9.218;2022-08-14T05:07:18;20.83;57.53
61351;DHT22;47119;49.130;9.218;2022-08-14T05:09:46;20.87;57.22
61351;DHT22;47119;49.130;9.218;2022-08-14T05:12:14;20.84;57.30
61351;DHT22;47119;49.130;9.218;2022-08-14T05:14:41;20.81;57.40
61351;DHT22;47119;49.130;9.218;2022-08-14T05:17:08;20.81;56.80
61351;DHT22;47119;49.130;9.218;2022-08-14T05:19:35;20.80;56.52
61351;DHT22;47119;49.130;9.218;2022-08-14T05:22:03;20.81;56.67
61351;DHT22;47119;49.130;9.218;2022-08-14T05:24:30;20.85;56.69
61351;DHT22;47119;49.130;9.218;2022-08-14T05:26:58;20.92;56.65
61351;DHT22;47119;49.130;9.218;2022-08-14T05:29:30;20.92;56.52
61351;DHT22;47119;49.130;9.218;2022-08-14T05:31:57;20.81;56.61
61351;DHT22;47119;49.130;9.218;2022-08-14T05:34:27;20.68;56.76
61351;DHT22;47119;49.130;9.218;2022-08-14T05:36:55;20.67;56.90
61351;DHT22;47119;49.130;9.218;2022-08-14T05:39:23;20.64;56.93
61351;DHT22;47119;49.130;9.218;2022-08-14T05:41:52;20.66;56.79
61351;DHT22;47119;49.130;9.218;2022-08-14T05:44:22;20.68;56.69
61351;DHT22;47119;49.130;9.218;2022-08-14T05:46:49;20.68;56.61
61351;DHT22;47119;49.130;9.218;2022-08-14T05:49:16;20.80;56.42
61351;DHT22;47119;49.130;9.218;2022-08-14T05:51:43;20.83;56.45
61351;DHT22;47119;49.130;9.218;2022-08-14T05:54:11;20.73;56.41
61351;DHT22;47119;49.130;9.218;2022-08-14T05:56:40;20.74;56.61
61351;DHT22;47119;49.130;9.218;2022-08-14T05:59:09;20.80;56.44
61351;DHT22;47119;49.130;9.218;2022-08-14T06:01:38;20.74;56.26
61351;DHT22;47119;49.130;9.218;2022-08-14T06:04:05;20.81;56.35
61351;DHT22;47119;49.130;9.218;2022-08-14T06:06:34;20.85;56.35
61351;DHT22;47119;49.130;9.218;2022-08-14T06:09:01;20.88;56.10
61351;DHT22;47119;49.130;9.218;2022-08-14T06:11:29;20.91;56.23
61351;DHT22;47119;49.130;9.218;2022-08-14T06:13:56;20.97;56.20
61351;DHT22;47119;49.130;9.218;2022-08-14T06:16:23;21.04;56.44
61351;DHT22;47119;49.130;9.218;2022-08-14T06:18:54;21.04;56.55
61351;DHT22;47119;49.130;9.218;2022-08-14T06:21:22;21.06;56.47
61351;DHT22;47119;49.130;9.218;2022-08-14T06:23:50;21.05;56.54
61351;DHT22;47119;49.130;9.218;2022-08-14T06:26:17;21.09;56.59
61351;DHT22;47119;49.130;9.218;2022-08-14T06:28:45;21.11;56.55
61351;DHT22;47119;49.130;9.218;2022-08-14T06:31:12;21.12;56.83
61351;DHT22;47119;49.130;9.218;2022-08-14T06:33:39;21.22;56.58
61351;DHT22;47119;49.130;9.218;2022-08-14T06:36:08;21.28;56.45
61351;DHT22;47119;49.130;9.218;2022-08-14T06:38:35;21.34;56.31
61351;DHT22;47119;49.130;9.218;2022-08-14T06:41:04;21.38;56.32
61351;DHT22;47119;49.130;9.218;2022-08-14T06:43:31;21.41;56.42
61351;DHT22;47119;49.130;9.218;2022-08-14T06:46:01;21.43;56.50
61351;DHT22;47119;49.130;9.218;2022-08-14T06:48:28;21.42;56.66
61351;DHT22;47119;49.130;9.218;2022-08-14T06:50:55;21.47;56.60
61351;DHT22;47119;49.130;9.218;2022-08-14T06:53:26;21.52;56.58
61351;DHT22;47119;49.130;9.218;2022-08-14T06:55:56;21.56;56.65
61351;DHT22;47119;49.130;9.218;2022-08-14T06:58:23;21.53;56.59
61351;DHT22;47119;49.130;9.218;2022-08-14T07:00:52;21.56;56.64
61351;DHT22;47119;49.130;9.218;2022-08-14T07:03:37;21.57;56.51
61351;DHT22;47119;49.130;9.218;2022-08-14T07:06:21;21.59;56.61
61351;DHT22;47119;49.130;9.218;2022-08-14T07:08:52;21.60;56.59
61351;DHT22;47119;49.130;9.218;2022-08-14T07:11:19;21.66;56.34
61351;DHT22;47119;49.130;9.218;2022-08-14T07:13:47;21.70;55.86
61351;DHT22;47119;49.130;9.218;2022-08-14T07:16:14;21.72;55.88
61351;DHT22;47119;49.130;9.218;2022-08-14T07:18:41;21.70;55.81
61351;DHT22;47119;49.130;9.218;2022-08-14T07:21:10;21.72;55.72
61351;DHT22;47119;49.130;9.218;2022-08-14T07:23:37;21.73;55.53
61351;DHT22;47119;49.130;9.218;2022-08-14T07:26:11;21.77;55.51
61351;DHT22;47119;49.130;9.218;2022-08-14T07:28:39;21.77;55.63
61351;DHT22;47119;49.130;9.218;2022-08-14T07:31:10;21.76;55.62
61351;DHT22;47119;49.130;9.218;2022-08-14T07:33:41;21.79;55.58
61351;DHT22;47119;49.130;9.218;2022-08-14T07:36:12;21.82;55.60
61351;DHT22;47119;49.130;9.218;2022-08-14T07:38:40;21.87;55.54
61351;DHT22;47119;49.130;9.218;2022-08-14T07:41:09;21.87;55.57
61351;DHT22;47119;49.130;9.218;2022-08-14T07:43:39;21.87;55.58
61351;DHT22;47119;49.130;9.218;2022-08-14T07:46:08;21.92;55.49
61351;DHT22;47119;49.130;9.218;2022-08-14T07:48:39;21.93;55.56
61351;DHT22;47119;49.130;9.218;2022-08-14T07:51:08;21.93;55.64
61351;DHT22;47119;49.130;9.218;2022-08-14T07:53:36;21.94;55.76
61351;DHT22;47119;49.130;9.218;2022-08-14T07:56:03;21.96;55.63
61351;DHT22;47119;49.130;9.218;2022-08-14T07:58:32;21.96;55.94
61351;DHT22;47119;49.130;9.218;2022-08-14T08:00:59;21.93;56.81
61351;DHT22;47119;49.130;9.218;2022-08-14T08:03:30;22.01;55.98
61351;DHT22;47119;49.130;9.218;2022-08-14T08:06:00;22.03;55.95
61351;DHT22;47119;49.130;9.218;2022-08-14T08:08:29;22.00;55.71
61351;DHT22;47119;49.130;9.218;2022-08-14T08:11:00;22.03;55.68
61351;DHT22;47119;49.130;9.218;2022-08-14T08:13:27;22.05;55.79
61351;DHT22;47119;49.130;9.218;2022-08-14T08:16:00;22.03;55.66
61351;DHT22;47119;49.130;9.218;2022-08-14T08:18:28;22.07;55.58
61351;DHT22;47119;49.130;9.218;2022-08-14T08:20:55;22.07;56.26
61351;DHT22;47119;49.130;9.218;2022-08-14T08:23:24;22.03;55.95
61351;DHT22;47119;49.130;9.218;2022-08-14T08:25:56;22.10;55.56
61351;DHT22;47119;49.130;9.218;2022-08-14T08:28:25;22.10;56.33
61351;DHT22;47119;49.130;9.218;2022-08-14T08:30:58;22.05;56.73
61351;DHT22;47119;49.130;9.218;2022-08-14T08:33:32;22.07;57.48
61351;DHT22;47119;49.130;9.218;2022-08-14T08:36:04;22.05;56.44
61351;DHT22;47119;49.130;9.218;2022-08-14T08:38:34;22.17;55.90
61351;DHT22;47119;49.130;9.218;2022-08-14T08:41:01;22.13;55.93
61351;DHT22;47119;49.130;9.218;2022-08-14T08:43:31;22.13;56.53
61351;DHT22;47119;49.130;9.218;2022-08-14T08:46:03;22.17;55.92
61351;DHT22;47119;49.130;9.218;2022-08-14T08:48:43;22.14;56.37
61351;DHT22;47119;49.130;9.218;2022-08-14T08:51:21;22.13;57.20
61351;DHT22;47119;49.130;9.218;2022-08-14T08:53:58;22.10;57.49
61351;DHT22;47119;49.130;9.218;2022-08-14T08:56:46;22.14;56.47
61351;DHT22;47119;49.130;9.218;2022-08-14T08:59:26;22.17;56.06
61351;DHT22;47119;49.130;9.218;2022-08-14T09:02:22;22.17;56.01
61351;DHT22;47119;49.130;9.218;2022-08-14T09:04:50;22.17;56.70
61351;DHT22;47119;49.130;9.218;2022-08-14T09:08:12;22.18;55.98
61351;DHT22;47119;49.130;9.218;2022-08-14T09:10:50;22.17;56.63
61351;DHT22;47119;49.130;9.218;2022-08-14T09:13:22;22.18;57.08
61351;DHT22;47119;49.130;9.218;2022-08-14T09:15:53;22.20;57.43
61351;DHT22;47119;49.130;9.218;2022-08-14T09:18:43;22.22;56.74
61351;DHT22;47119;49.130;9.218;2022-08-14T09:21:23;22.22;56.23
61351;DHT22;47119;49.130;9.218;2022-08-14T09:23:54;22.18;56.87
61351;DHT22;47119;49.130;9.218;2022-08-14T09:26:23;22.22;56.12
61351;DHT22;47119;49.130;9.218;2022-08-14T09:29:17;22.24;55.86
61351;DHT22;47119;49.130;9.218;2022-08-14T09:31:59;22.17;58.35
61351;DHT22;47119;49.130;9.218;2022-08-14T09:35:04;22.15;57.78
61351;DHT22;47119;49.130;9.218;2022-08-14T09:38:05;22.25;56.95
61351;DHT22;47119;49.130;9.218;2022-08-14T09:40:58;22.22;58.32
61351;DHT22;47119;49.130;9.218;2022-08-14T09:44:27;22.22;57.30
61351;DHT22;47119;49.130;9.218;2022-08-14T09:47:10;22.22;58.00
61351;DHT22;47119;49.130;9.218;2022-08-14T09:49:38;22.24;56.23
61351;DHT22;47119;49.130;9.218;2022-08-14T09:55:35;22.27;56.32
61351;DHT22;47119;49.130;9.218;2022-08-14T09:58:13;22.25;57.67
61351;DHT22;47119;49.130;9.218;2022-08-14T10:00:54;22.27;56.50
61351;DHT22;47119;49.130;9.218;2022-08-14T10:03:57;22.28;55.94
61351;DHT22;47119;49.130;9.218;2022-08-14T10:06:30;22.28;57.97
61351;DHT22;47119;49.130;9.218;2022-08-14T10:09:10;22.30;56.33
61351;DHT22;47119;49.130;9.218;2022-08-14T10:11:56;22.27;56.14
61351;DHT22;47119;49.130;9.218;2022-08-14T10:14:27;22.28;55.94
61351;DHT22;47119;49.130;9.218;2022-08-14T10:17:26;22.28;56.53
61351;DHT22;47119;49.130;9.218;2022-08-14T10:19:53;22.31;56.82
61351;DHT22;47119;49.130;9.218;2022-08-14T10:22:26;22.30;56.39
61351;DHT22;47119;49.130;9.218;2022-08-14T10:25:19;22.30;56.34
61351;DHT22;47119;49.130;9.218;2022-08-14T10:27:56;22.31;56.67
61351;DHT22;47119;49.130;9.218;2022-08-14T10:30:33;22.31;56.31
61351;DHT22;47119;49.130;9.218;2022-08-14T10:33:03;22.34;56.10
61351;DHT22;47119;49.130;9.218;2022-08-14T10:35:43;22.33;56.50
61351;DHT22;47119;49.130;9.218;2022-08-14T10:38:10;22.33;56.46
61351;DHT22;47119;49.130;9.218;2022-08-14T10:51:01;22.33;55.10
61351;DHT22;47119;49.130;9.218;2022-08-14T10:53:33;22.31;55.96
61351;DHT22;47119;49.130;9.218;2022-08-14T11:00:22;22.33;55.81
61351;DHT22;47119;49.130;9.218;2022-08-14T11:03:05;22.31;55.22
61351;DHT22;47119;49.130;9.218;2022-08-14T11:10:12;22.31;56.51
61351;DHT22;47119;49.130;9.218;2022-08-14T11:13:57;22.27;55.19
61351;DHT22;47119;49.130;9.218;2022-08-14T11:26:18;22.22;56.68
61351;DHT22;47119;49.130;9.218;2022-08-14T11:32:47;22.35;55.24
61351;DHT22;47119;49.130;9.218;2022-08-14T11:35:26;22.38;55.24
61351;DHT22;47119;49.130;9.218;2022-08-14T11:42:29;22.37;55.36
61351;DHT22;47119;49.130;9.218;2022-08-14T11:46:01;22.37;54.80
61351;DHT22;47119;49.130;9.218;2022-08-14T11:49:25;22.38;55.22
61351;DHT22;47119;49.130;9.218;2022-08-14T11:51:56;22.37;54.81
61351;DHT22;47119;49.130;9.218;2022-08-14T11:54:29;22.33;55.07
61351;DHT22;47119;49.130;9.218;2022-08-14T11:57:00;22.37;55.30
61351;DHT22;47119;49.130;9.218;2022-08-14T11:59:34;22.35;55.96
61351;DHT22;47119;49.130;9.218;2022-08-14T12:02:14;22.35;56.26
61351;DHT22;47119;49.130;9.218;2022-08-14T12:05:04;22.37;54.66
61351;DHT22;47119;49.130;9.218;2022-08-14T12:07:48;22.38;55.69
61351;DHT22;47119;49.130;9.218;2022-08-14T12:10:20;22.35;57.04
61351;DHT22;47119;49.130;9.218;2022-08-14T12:12:47;22.37;56.63
61351;DHT22;47119;49.130;9.218;2022-08-14T12:15:36;22.34;56.96
61351;DHT22;47119;49.130;9.218;2022-08-14T12:18:04;22.40;55.78
61351;DHT22;47119;49.130;9.218;2022-08-14T12:20:44;22.41;55.75
61351;DHT22;47119;49.130;9.218;2022-08-14T12:24:05;22.40;56.33
61351;DHT22;47119;49.130;9.218;2022-08-14T12:29:12;22.41;56.03
61351;DHT22;47119;49.130;9.218;2022-08-14T12:35:42;22.40;56.51
61351;DHT22;47119;49.130;9.218;2022-08-14T12:38:50;22.40;56.29
61351;DHT22;47119;49.130;9.218;2022-08-14T12:41:48;22.38;56.03
61351;DHT22;47119;49.130;9.218;2022-08-14T12:44:47;22.38;56.02
61351;DHT22;47119;49.130;9.218;2022-08-14T12:47:43;22.38;54.76
61351;DHT22;47119;49.130;9.218;2022-08-14T12:51:02;22.41;52.60
61351;DHT22;47119;49.130;9.218;2022-08-14T12:53:46;22.40;55.29
61351;DHT22;47119;49.130;9.218;2022-08-14T12:57:05;22.42;55.65
61351;DHT22;47119;49.130;9.218;2022-08-14T12:59:34;22.37;55.53
61351;DHT22;47119;49.130;9.218;2022-08-14T13:02:04;22.41;55.84
61351;DHT22;47119;49.130;9.218;2022-08-14T13:04:32;22.37;55.58
61351;DHT22;47119;49.130;9.218;2022-08-14T13:07:03;22.40;55.64
61351;DHT22;47119;49.130;9.218;2022-08-14T13:09:33;22.40;54.72
61351;DHT22;47119;49.130;9.218;2022-08-14T13:12:04;22.35;55.17
61351;DHT22;47119;49.130;9.218;2022-08-14T13:14:31;22.37;55.23
61351;DHT22;47119;49.130;9.218;2022-08-14T13:16:59;22.40;54.49
61351;DHT22;47119;49.130;9.218;2022-08-14T13:19:31;22.38;55.74
61351;DHT22;47119;49.130;9.218;2022-08-14T13:22:00;22.38;55.52
61351;DHT22;47119;49.130;9.218;2022-08-14T13:24:30;22.37;54.55
61351;DHT22;47119;49.130;9.218;2022-08-14T13:26:58;22.35;55.29
61351;DHT22;47119;49.130;9.218;2022-08-14T13:30:13;22.37;55.43
61351;DHT22;47119;49.130;9.218;2022-08-14T13:36:58;22.38;54.87
61351;DHT22;47119;49.130;9.218;2022-08-14T13:39:54;22.37;54.87
61351;DHT22;47119;49.130;9.218;2022-08-14T13:42:43;22.37;54.60
61351;DHT22;47119;49.130;9.218;2022-08-14T13:45:18;22.38;55.98
61351;DHT22;47119;49.130;9.218;2022-08-14T13:47:50;22.35;53.55
61351;DHT22;47119;49.130;9.218;2022-08-14T13:50:44;22.37;55.09
61351;DHT22;47119;49.130;9.218;2022-08-14T13:55:34;22.37;55.40
61351;DHT22;47119;49.130;9.218;2022-08-14T13:57:33;22.35;55.98
61351;DHT22;47119;49.130;9.218;2022-08-14T14:05:28;22.34;55.49
61351;DHT22;47119;49.130;9.218;2022-08-14T14:08:20;22.37;55.56
61351;DHT22;47119;49.130;9.218;2022-08-14T14:11:07;22.37;55.12
61351;DHT22;47119;49.130;9.218;2022-08-14T14:14:07;22.38;56.19
61351;DHT22;47119;49.130;9.218;2022-08-14T14:17:43;22.37;55.32
61351;DHT22;47119;49.130;9.218;2022-08-14T14:20:33;22.41;53.71
61351;DHT22;47119;49.130;9.218;2022-08-14T14:23:01;22.42;54.28
61351;DHT22;47119;49.130;9.218;2022-08-14T14:25:44;22.41;54.48
61351;DHT22;47119;49.130;9.218;2022-08-14T14:28:30;22.40;53.58
61351;DHT22;47119;49.130;9.218;2022-08-14T14:31:07;22.41;53.07
61351;DHT22;47119;49.130;9.218;2022-08-14T14:33:44;22.44;52.04
61351;DHT22;47119;49.130;9.218;2022-08-14T14:36:18;22.42;53.16
61351;DHT22;47119;49.130;9.218;2022-08-14T14:38:54;22.51;51.20
61351;DHT22;47119;49.130;9.218;2022-08-14T14:41:49;22.62;51.55
61351;DHT22;47119;49.130;9.218;2022-08-14T14:44:42;22.55;52.99
61351;DHT22;47119;49.130;9.218;2022-08-14T14:47:26;22.47;53.52
61351;DHT22;47119;49.130;9.218;2022-08-14T14:49:55;22.47;53.86
61351;DHT22;47119;49.130;9.218;2022-08-14T14:52:27;22.45;52.76
61351;DHT22;47119;49.130;9.218;2022-08-14T14:58:48;22.49;52.40
61351;DHT22;47119;49.130;9.218;2022-08-14T15:00:19;22.47;52.60
61351;DHT22;47119;49.130;9.218;2022-08-14T15:02:55;22.48;53.58
61351;DHT22;47119;49.130;9.218;2022-08-14T15:05:22;22.48;52.94
61351;DHT22;47119;49.130;9.218;2022-08-14T15:08:04;22.47;53.25
61351;DHT22;47119;49.130;9.218;2022-08-14T15:10:35;22.48;53.63
61351;DHT22;47119;49.130;9.218;2022-08-14T15:14:06;22.47;53.11
61351;DHT22;47119;49.130;9.218;2022-08-14T15:16:33;22.47;52.37
61351;DHT22;47119;49.130;9.218;2022-08-14T15:19:02;22.48;52.65
61351;DHT22;47119;49.130;9.218;2022-08-14T15:21:53;22.51;52.46
61351;DHT22;47119;49.130;9.218;2022-08-14T15:24:20;22.48;53.14
61351;DHT22;47119;49.130;9.218;2022-08-14T15:26:50;22.47;53.30
61351;DHT22;47119;49.130;9.218;2022-08-14T15:29:20;22.48;52.60
61351;DHT22;47119;49.130;9.218;2022-08-14T15:31:47;22.48;52.07
61351;DHT22;47119;49.130;9.218;2022-08-14T15:34:15;22.48;52.68
61351;DHT22;47119;49.130;9.218;2022-08-14T15:36:43;22.47;52.55
61351;DHT22;47119;49.130;9.218;2022-08-14T15:39:11;22.47;52.40
61351;DHT22;47119;49.130;9.218;2022-08-14T15:41:38;22.47;52.56
61351;DHT22;47119;49.130;9.218;2022-08-14T15:44:06;22.47;52.36
61351;DHT22;47119;49.130;9.218;2022-08-14T15:46:40;22.48;52.86
61351;DHT22;47119;49.130;9.218;2022-08-14T15:49:12;22.47;52.81
61351;DHT22;47119;49.130;9.218;2022-08-14T15:51:43;22.47;52.27
61351;DHT22;47119;49.130;9.218;2022-08-14T15:54:14;22.48;52.32
61351;DHT22;47119;49.130;9.218;2022-08-14T15:56:58;22.45;52.24
61351;DHT22;47119;49.130;9.218;2022-08-14T15:59:32;22.45;52.89
61351;DHT22;47119;49.130;9.218;2022-08-14T16:02:17;22.45;53.13
61351;DHT22;47119;49.130;9.218;2022-08-14T16:04:46;22.45;52.31
61351;DHT22;47119;49.130;9.218;2022-08-14T16:07:15;22.47;52.52
61351;DHT22;47119;49.130;9.218;2022-08-14T16:10:10;22.45;53.22
61351;DHT22;47119;49.130;9.218;2022-08-14T16:12:50;22.44;53.27
61351;DHT22;47119;49.130;9.218;2022-08-14T16:15:18;22.44;52.53
61351;DHT22;47119;49.130;9.218;2022-08-14T16:18:40;22.47;52.03
61351;DHT22;47119;49.130;9.218;2022-08-14T16:21:20;22.45;52.13
61351;DHT22;47119;49.130;9.218;2022-08-14T16:27:51;22.45;52.28
61351;DHT22;47119;49.130;9.218;2022-08-14T16:30:35;22.44;52.43
61351;DHT22;47119;49.130;9.218;2022-08-14T16:33:03;22.42;53.30
61351;DHT22;47119;49.130;9.218;2022-08-14T16:35:33;22.45;52.78
61351;DHT22;47119;49.130;9.218;2022-08-14T16:38:05;22.44;53.75
61351;DHT22;47119;49.130;9.218;2022-08-14T16:40:43;22.45;52.22
61351;DHT22;47119;49.130;9.218;2022-08-14T16:43:13;22.44;53.23
61351;DHT22;47119;49.130;9.218;2022-08-14T16:45:41;22.47;52.47
61351;DHT22;47119;49.130;9.218;2022-08-14T16:48:08;22.44;52.65
61351;DHT22;47119;49.130;9.218;2022-08-14T16:50:38;22.44;52.12
61351;DHT22;47119;49.130;9.218;2022-08-14T16:53:05;22.45;51.94
61351;DHT22;47119;49.130;9.218;2022-08-14T16:55:32;22.45;52.81
61351;DHT22;47119;49.130;9.218;2022-08-14T16:58:02;22.45;53.11
61351;DHT22;47119;49.130;9.218;2022-08-14T17:00:33;22.44;52.35
61351;DHT22;47119;49.130;9.218;2022-08-14T17:03:06;22.45;52.31
61351;DHT22;47119;49.130;9.218;2022-08-14T17:05:40;22.44;53.34
61351;DHT22;47119;49.130;9.218;2022-08-14T17:08:12;22.45;52.14
61351;DHT22;47119;49.130;9.218;2022-08-14T17:11:01;22.47;52.82
61351;DHT22;47119;49.130;9.218;2022-08-14T17:13:32;22.44;52.27
61351;DHT22;47119;49.130;9.218;2022-08-14T17:16:06;22.47;52.64
61351;DHT22;47119;49.130;9.218;2022-08-14T17:18:40;22.45;52.34
61351;DHT22;47119;49.130;9.218;2022-08-14T17:21:16;22.45;51.61